sensor_id;sensor_type;location;lat;lon;timestamp;P1;durP1;ratioP1;P2;durP2;ratioP2
46781;SDS011;32541;46.298;11.506;2022-07-23T00:01:23;9.77;;;7.82;;
46781;SDS011;32541;46.298;11.506;2022-07-23T00:03:49;9.23;;;7.70;;
46781;SDS011;32541;46.298;11.506;2022-07-23T00:06:16;10.15;;;8.10;;
46781;SDS011;32541;46.298;11.506;2022-07-23T00:08:42;10.82;;;8.13;;
46781;SDS011;32541;46.298;11.506;2022-07-23T00:11:08;10.10;;;7.82;;
46781;SDS011;32541;46.298;11.506;2022-07-23T00:13:33;8.73;;;7.93;;
46781;SDS011;32541;46.298;11.506;2022-07-23T00:15:58;10.38;;;8.07;;
46781;SDS011;32541;46.298;11.506;2022-07-23T00:18:24;8.82;;;7.68;;
46781;SDS011;32541;46.298;11.506;2022-07-23T00:20:49;7.82;;;7.03;;
46781;SDS011;32541;46.298;11.506;2022-07-23T00:23:16;8.95;;;8.00;;
46781;SDS011;32541;46.298;11.506;2022-07-23T00:25:41;12.27;;;8.35;;
46781;SDS011;32541;46.298;11.506;2022-07-23T00:28:06;8.45;;;7.53;;
46781;SDS011;32541;46.298;11.506;2022-07-23T00:30:47;8.82;;;7.63;;
46781;SDS011;32541;46.298;11.506;2022-07-23T00:33:12;11.52;;;7.60;;
46781;SDS011;32541;46.298;11.506;2022-07-23T00:35:38;11.10;;;7.30;;
46781;SDS011;32541;46.298;11.506;2022-07-23T00:38:12;9.63;;;8.05;;
46781;SDS011;32541;46.298;11.506;2022-07-23T00:40:49;8.48;;;7.63;;
46781;SDS011;32541;46.298;11.506;2022-07-23T00:43:23;11.10;;;7.95;;
46781;SDS011;32541;46.298;11.506;2022-07-23T00:45:50;9.18;;;7.80;;
46781;SDS011;32541;46.298;11.506;2022-07-23T00:48:16;9.18;;;8.27;;
46781;SDS011;32541;46.298;11.506;2022-07-23T00:50:42;11.75;;;8.55;;
46781;SDS011;32541;46.298;11.506;2022-07-23T00:53:08;9.90;;;8.20;;
46781;SDS011;32541;46.298;11.506;2022-07-23T00:55:34;12.48;;;9.27;;
46781;SDS011;32541;46.298;11.506;2022-07-23T00:57:59;9.27;;;8.38;;
46781;SDS011;32541;46.298;11.506;2022-07-23T01:00:26;11.30;;;9.30;;
46781;SDS011;32541;46.298;11.506;2022-07-23T01:02:51;9.00;;;7.78;;
46781;SDS011;32541;46.298;11.506;2022-07-23T01:05:17;10.02;;;8.25;;
46781;SDS011;32541;46.298;11.506;2022-07-23T01:07:47;9.02;;;7.60;;
46781;SDS011;32541;46.298;11.506;2022-07-23T01:10:15;9.30;;;8.27;;
46781;SDS011;32541;46.298;11.506;2022-07-23T01:13:06;8.95;;;8.05;;
46781;SDS011;32541;46.298;11.506;2022-07-23T01:15:34;10.05;;;8.55;;
46781;SDS011;32541;46.298;11.506;2022-07-23T01:18:01;8.65;;;7.82;;
46781;SDS011;32541;46.298;11.506;2022-07-23T01:20:27;10.50;;;8.02;;
46781;SDS011;32541;46.298;11.506;2022-07-23T01:22:53;8.30;;;7.45;;
46781;SDS011;32541;46.298;11.506;2022-07-23T01:25:19;9.13;;;7.93;;
46781;SDS011;32541;46.298;11.506;2022-07-23T01:27:45;11.55;;;7.95;;
46781;SDS011;32541;46.298;11.506;2022-07-23T01:30:10;12.20;;;7.85;;
46781;SDS011;32541;46.298;11.506;2022-07-23T01:32:37;10.50;;;8.05;;
46781;SDS011;32541;46.298;11.506;2022-07-23T01:35:03;9.77;;;8.15;;
46781;SDS011;32541;46.298;11.506;2022-07-23T01:37:29;10.20;;;8.13;;
46781;SDS011;32541;46.298;11.506;2022-07-23T01:39:55;8.95;;;8.00;;
46781;SDS011;32541;46.298;11.506;2022-07-23T01:42:20;9.68;;;7.88;;
46781;SDS011;32541;46.298;11.506;2022-07-23T01:44:46;8.07;;;6.93;;
46781;SDS011;32541;46.298;11.506;2022-07-23T01:47:11;10.00;;;8.65;;
46781;SDS011;32541;46.298;11.506;2022-07-23T01:49:37;10.93;;;8.52;;
46781;SDS011;32541;46.298;11.506;2022-07-23T01:52:02;10.52;;;8.25;;
46781;SDS011;32541;46.298;11.506;2022-07-23T01:54:32;11.02;;;8.23;;
46781;SDS011;32541;46.298;11.506;2022-07-23T01:56:59;11.93;;;8.43;;
46781;SDS011;32541;46.298;11.506;2022-07-23T01:59:25;9.73;;;7.82;;
46781;SDS011;32541;46.298;11.506;2022-07-23T02:01:52;10.10;;;7.88;;
46781;SDS011;32541;46.298;11.506;2022-07-23T02:04:19;8.68;;;7.55;;
46781;SDS011;32541;46.298;11.506;2022-07-23T02:06:45;11.25;;;7.97;;
46781;SDS011;32541;46.298;11.506;2022-07-23T02:09:11;8.88;;;7.97;;
46781;SDS011;32541;46.298;11.506;2022-07-23T02:11:36;8.63;;;7.72;;
46781;SDS011;32541;46.298;11.506;2022-07-23T02:14:02;9.77;;;7.75;;
46781;SDS011;32541;46.298;11.506;2022-07-23T02:16:27;9.20;;;7.80;;
46781;SDS011;32541;46.298;11.506;2022-07-23T02:18:53;12.85;;;8.63;;
46781;SDS011;32541;46.298;11.506;2022-07-23T02:21:18;9.27;;;8.35;;
46781;SDS011;32541;46.298;11.506;2022-07-23T02:23:44;10.07;;;8.00;;
46781;SDS011;32541;46.298;11.506;2022-07-23T02:26:09;12.00;;;8.55;;
46781;SDS011;32541;46.298;11.506;2022-07-23T02:28:34;10.07;;;7.90;;
46781;SDS011;32541;46.298;11.506;2022-07-23T02:31:00;9.93;;;8.10;;
46781;SDS011;32541;46.298;11.506;2022-07-23T02:33:25;11.32;;;8.13;;
46781;SDS011;32541;46.298;11.506;2022-07-23T02:35:51;8.73;;;7.78;;
46781;SDS011;32541;46.298;11.506;2022-07-23T02:38:16;10.68;;;8.85;;
46781;SDS011;32541;46.298;11.506;2022-07-23T02:40:41;9.30;;;8.23;;
46781;SDS011;32541;46.298;11.506;2022-07-23T02:43:07;11.20;;;8.30;;
46781;SDS011;32541;46.298;11.506;2022-07-23T02:45:32;10.68;;;8.48;;
46781;SDS011;32541;46.298;11.506;2022-07-23T02:47:57;9.30;;;8.25;;
46781;SDS011;32541;46.298;11.506;2022-07-23T02:50:23;9.30;;;8.25;;
46781;SDS011;32541;46.298;11.506;2022-07-23T02:52:48;10.63;;;8.32;;
46781;SDS011;32541;46.298;11.506;2022-07-23T02:55:14;9.88;;;8.85;;
46781;SDS011;32541;46.298;11.506;2022-07-23T02:57:39;12.00;;;8.80;;
46781;SDS011;32541;46.298;11.506;2022-07-23T03:00:05;9.52;;;8.52;;
46781;SDS011;32541;46.298;11.506;2022-07-23T03:02:32;10.10;;;8.50;;
46781;SDS011;32541;46.298;11.506;2022-07-23T03:04:57;9.15;;;8.15;;
46781;SDS011;32541;46.298;11.506;2022-07-23T03:07:23;9.20;;;8.25;;
46781;SDS011;32541;46.298;11.506;2022-07-23T03:09:48;10.75;;;8.65;;
46781;SDS011;32541;46.298;11.506;2022-07-23T03:12:13;11.25;;;8.40;;
46781;SDS011;32541;46.298;11.506;2022-07-23T03:14:39;10.30;;;8.45;;
46781;SDS011;32541;46.298;11.506;2022-07-23T03:17:05;9.13;;;8.23;;
46781;SDS011;32541;46.298;11.506;2022-07-23T03:19:30;9.80;;;8.75;;
46781;SDS011;32541;46.298;11.506;2022-07-23T03:21:56;11.30;;;9.13;;
46781;SDS011;32541;46.298;11.506;2022-07-23T03:24:21;9.45;;;8.45;;
46781;SDS011;32541;46.298;11.506;2022-07-23T03:26:48;10.75;;;9.00;;
46781;SDS011;32541;46.298;11.506;2022-07-23T03:29:14;11.55;;;8.88;;
46781;SDS011;32541;46.298;11.506;2022-07-23T03:31:40;10.20;;;8.25;;
46781;SDS011;32541;46.298;11.506;2022-07-23T03:34:05;10.45;;;8.73;;
46781;SDS011;32541;46.298;11.506;2022-07-23T03:36:30;11.52;;;8.32;;
46781;SDS011;32541;46.298;11.506;2022-07-23T03:38:56;10.57;;;9.40;;
46781;SDS011;32541;46.298;11.506;2022-07-23T03:41:22;9.05;;;8.15;;
46781;SDS011;32541;46.298;11.506;2022-07-23T03:43:47;9.88;;;8.68;;
46781;SDS011;32541;46.298;11.506;2022-07-23T03:46:12;9.82;;;8.82;;
46781;SDS011;32541;46.298;11.506;2022-07-23T03:48:38;9.45;;;8.40;;
46781;SDS011;32541;46.298;11.506;2022-07-23T03:51:04;12.68;;;9.00;;
46781;SDS011;32541;46.298;11.506;2022-07-23T03:53:29;10.00;;;9.00;;
46781;SDS011;32541;46.298;11.506;2022-07-23T03:55:54;10.32;;;8.80;;
46781;SDS011;32541;46.298;11.506;2022-07-23T03:58:20;11.23;;;8.98;;
46781;SDS011;32541;46.298;11.506;2022-07-23T04:00:45;11.82;;;9.20;;
46781;SDS011;32541;46.298;11.506;2022-07-23T04:03:11;13.73;;;9.18;;
46781;SDS011;32541;46.298;11.506;2022-07-23T04:05:36;10.98;;;9.25;;
46781;SDS011;32541;46.298;11.506;2022-07-23T04:08:02;12.35;;;9.70;;
46781;SDS011;32541;46.298;11.506;2022-07-23T04:10:27;12.10;;;9.55;;
46781;SDS011;32541;46.298;11.506;2022-07-23T04:12:52;13.40;;;9.80;;
46781;SDS011;32541;46.298;11.506;2022-07-23T04:15:18;11.57;;;10.13;;
46781;SDS011;32541;46.298;11.506;2022-07-23T04:17:43;10.93;;;9.63;;
46781;SDS011;32541;46.298;11.506;2022-07-23T04:20:10;10.88;;;9.07;;
46781;SDS011;32541;46.298;11.506;2022-07-23T04:22:36;11.23;;;9.75;;
46781;SDS011;32541;46.298;11.506;2022-07-23T04:25:01;21.95;;;10.30;;
46781;SDS011;32541;46.298;11.506;2022-07-23T04:27:27;12.05;;;10.43;;
46781;SDS011;32541;46.298;11.506;2022-07-23T04:29:52;11.32;;;10.13;;
46781;SDS011;32541;46.298;11.506;2022-07-23T04:32:18;10.68;;;9.65;;
46781;SDS011;32541;46.298;11.506;2022-07-23T04:34:43;19.70;;;11.30;;
46781;SDS011;32541;46.298;11.506;2022-07-23T04:37:08;16.50;;;10.50;;
46781;SDS011;32541;46.298;11.506;2022-07-23T04:39:34;15.40;;;11.60;;
46781;SDS011;32541;46.298;11.506;2022-07-23T04:41:59;13.20;;;10.93;;
46781;SDS011;32541;46.298;11.506;2022-07-23T04:44:24;13.05;;;11.32;;
46781;SDS011;32541;46.298;11.506;2022-07-23T04:46:50;12.27;;;11.02;;
46781;SDS011;32541;46.298;11.506;2022-07-23T04:49:15;10.52;;;8.20;;
46781;SDS011;32541;46.298;11.506;2022-07-23T04:51:41;9.70;;;7.65;;
46781;SDS011;32541;46.298;11.506;2022-07-23T04:54:06;45.83;;;30.05;;
46781;SDS011;32541;46.298;11.506;2022-07-23T04:56:31;10.25;;;7.45;;
46781;SDS011;32541;46.298;11.506;2022-07-23T04:58:57;9.75;;;6.85;;
46781;SDS011;32541;46.298;11.506;2022-07-23T05:01:22;13.20;;;7.25;;
46781;SDS011;32541;46.298;11.506;2022-07-23T05:03:48;6.95;;;5.88;;
46781;SDS011;32541;46.298;11.506;2022-07-23T05:06:13;11.82;;;8.48;;
46781;SDS011;32541;46.298;11.506;2022-07-23T05:08:39;11.68;;;10.45;;
46781;SDS011;32541;46.298;11.506;2022-07-23T05:11:05;13.32;;;9.85;;
46781;SDS011;32541;46.298;11.506;2022-07-23T05:13:30;13.70;;;10.18;;
46781;SDS011;32541;46.298;11.506;2022-07-23T05:15:55;9.80;;;7.25;;
46781;SDS011;32541;46.298;11.506;2022-07-23T05:18:21;7.47;;;6.18;;
46781;SDS011;32541;46.298;11.506;2022-07-23T05:20:46;8.20;;;7.13;;
46781;SDS011;32541;46.298;11.506;2022-07-23T05:23:11;11.63;;;9.38;;
46781;SDS011;32541;46.298;11.506;2022-07-23T05:25:37;10.88;;;8.73;;
46781;SDS011;32541;46.298;11.506;2022-07-23T05:28:02;12.07;;;7.72;;
46781;SDS011;32541;46.298;11.506;2022-07-23T05:30:28;11.88;;;7.97;;
46781;SDS011;32541;46.298;11.506;2022-07-23T05:32:53;15.23;;;12.20;;
46781;SDS011;32541;46.298;11.506;2022-07-23T05:35:19;14.00;;;12.27;;
46781;SDS011;32541;46.298;11.506;2022-07-23T05:37:44;15.57;;;12.18;;
46781;SDS011;32541;46.298;11.506;2022-07-23T05:40:10;13.35;;;11.60;;
46781;SDS011;32541;46.298;11.506;2022-07-23T05:42:37;11.98;;;10.73;;
46781;SDS011;32541;46.298;11.506;2022-07-23T05:45:03;10.82;;;8.30;;
46781;SDS011;32541;46.298;11.506;2022-07-23T05:47:43;9.88;;;7.35;;
46781;SDS011;32541;46.298;11.506;2022-07-23T05:50:10;9.55;;;7.63;;
46781;SDS011;32541;46.298;11.506;2022-07-23T05:52:36;9.02;;;7.35;;
46781;SDS011;32541;46.298;11.506;2022-07-23T05:55:03;8.25;;;7.15;;
46781;SDS011;32541;46.298;11.506;2022-07-23T05:57:29;9.98;;;8.05;;
46781;SDS011;32541;46.298;11.506;2022-07-23T05:59:54;9.45;;;7.60;;
46781;SDS011;32541;46.298;11.506;2022-07-23T06:02:20;11.73;;;8.38;;
46781;SDS011;32541;46.298;11.506;2022-07-23T06:04:45;9.07;;;7.32;;
46781;SDS011;32541;46.298;11.506;2022-07-23T06:07:11;11.65;;;8.40;;
46781;SDS011;32541;46.298;11.506;2022-07-23T06:09:36;9.25;;;7.72;;
46781;SDS011;32541;46.298;11.506;2022-07-23T06:12:02;9.48;;;7.20;;
46781;SDS011;32541;46.298;11.506;2022-07-23T06:14:27;10.25;;;8.40;;
46781;SDS011;32541;46.298;11.506;2022-07-23T06:16:52;9.45;;;8.45;;
46781;SDS011;32541;46.298;11.506;2022-07-23T06:19:18;8.30;;;7.50;;
46781;SDS011;32541;46.298;11.506;2022-07-23T06:21:43;8.65;;;6.82;;
46781;SDS011;32541;46.298;11.506;2022-07-23T06:24:09;8.32;;;6.53;;
46781;SDS011;32541;46.298;11.506;2022-07-23T06:26:34;9.55;;;7.53;;
46781;SDS011;32541;46.298;11.506;2022-07-23T06:28:59;8.93;;;7.57;;
46781;SDS011;32541;46.298;11.506;2022-07-23T06:31:25;6.95;;;6.25;;
46781;SDS011;32541;46.298;11.506;2022-07-23T06:33:50;6.18;;;5.55;;
46781;SDS011;32541;46.298;11.506;2022-07-23T06:36:16;7.38;;;5.57;;
46781;SDS011;32541;46.298;11.506;2022-07-23T06:38:41;8.23;;;6.40;;
46781;SDS011;32541;46.298;11.506;2022-07-23T06:41:06;7.90;;;6.20;;
46781;SDS011;32541;46.298;11.506;2022-07-23T06:43:32;6.72;;;5.68;;
46781;SDS011;32541;46.298;11.506;2022-07-23T06:45:57;7.13;;;6.00;;
46781;SDS011;32541;46.298;11.506;2022-07-23T06:48:23;6.38;;;5.78;;
46781;SDS011;32541;46.298;11.506;2022-07-23T06:50:48;7.45;;;5.30;;
46781;SDS011;32541;46.298;11.506;2022-07-23T06:53:13;6.72;;;5.25;;
46781;SDS011;32541;46.298;11.506;2022-07-23T06:55:39;6.00;;;5.00;;
46781;SDS011;32541;46.298;11.506;2022-07-23T06:58:05;5.43;;;4.85;;
46781;SDS011;32541;46.298;11.506;2022-07-23T07:00:31;5.47;;;4.47;;
46781;SDS011;32541;46.298;11.506;2022-07-23T07:02:57;6.68;;;5.25;;
46781;SDS011;32541;46.298;11.506;2022-07-23T07:05:23;6.85;;;5.00;;
46781;SDS011;32541;46.298;11.506;2022-07-23T07:07:50;6.50;;;5.35;;
46781;SDS011;32541;46.298;11.506;2022-07-23T07:10:16;6.18;;;5.13;;
46781;SDS011;32541;46.298;11.506;2022-07-23T07:12:42;7.63;;;5.50;;
46781;SDS011;32541;46.298;11.506;2022-07-23T07:15:08;8.15;;;5.13;;
46781;SDS011;32541;46.298;11.506;2022-07-23T07:17:34;6.30;;;5.30;;
46781;SDS011;32541;46.298;11.506;2022-07-23T07:19:59;5.35;;;4.85;;
46781;SDS011;32541;46.298;11.506;2022-07-23T07:22:24;4.68;;;4.05;;
46781;SDS011;32541;46.298;11.506;2022-07-23T07:24:50;6.13;;;5.10;;
46781;SDS011;32541;46.298;11.506;2022-07-23T07:27:15;5.85;;;4.75;;
46781;SDS011;32541;46.298;11.506;2022-07-23T07:29:41;5.35;;;4.55;;
46781;SDS011;32541;46.298;11.506;2022-07-23T07:32:06;6.28;;;5.45;;
46781;SDS011;32541;46.298;11.506;2022-07-23T07:34:32;5.72;;;4.75;;
46781;SDS011;32541;46.298;11.506;2022-07-23T07:36:57;5.65;;;4.30;;
46781;SDS011;32541;46.298;11.506;2022-07-23T07:39:22;5.15;;;4.45;;
46781;SDS011;32541;46.298;11.506;2022-07-23T07:41:48;5.95;;;4.63;;
46781;SDS011;32541;46.298;11.506;2022-07-23T07:44:13;4.38;;;3.97;;
46781;SDS011;32541;46.298;11.506;2022-07-23T07:46:39;5.15;;;3.88;;
46781;SDS011;32541;46.298;11.506;2022-07-23T07:49:05;4.47;;;4.07;;
46781;SDS011;32541;46.298;11.506;2022-07-23T07:51:31;5.13;;;4.50;;
46781;SDS011;32541;46.298;11.506;2022-07-23T07:53:57;5.18;;;4.68;;
46781;SDS011;32541;46.298;11.506;2022-07-23T07:56:23;5.70;;;4.60;;
46781;SDS011;32541;46.298;11.506;2022-07-23T07:58:48;7.13;;;4.55;;
46781;SDS011;32541;46.298;11.506;2022-07-23T08:01:14;6.38;;;4.75;;
46781;SDS011;32541;46.298;11.506;2022-07-23T08:03:39;7.80;;;4.72;;
46781;SDS011;32541;46.298;11.506;2022-07-23T08:06:04;5.70;;;4.65;;
46781;SDS011;32541;46.298;11.506;2022-07-23T08:08:30;8.15;;;5.35;;
46781;SDS011;32541;46.298;11.506;2022-07-23T08:10:55;8.88;;;4.18;;
46781;SDS011;32541;46.298;11.506;2022-07-23T08:13:21;3.95;;;3.55;;
46781;SDS011;32541;46.298;11.506;2022-07-23T08:15:46;6.68;;;4.32;;
46781;SDS011;32541;46.298;11.506;2022-07-23T08:18:12;4.68;;;4.18;;
46781;SDS011;32541;46.298;11.506;2022-07-23T08:20:37;5.72;;;3.40;;
46781;SDS011;32541;46.298;11.506;2022-07-23T08:23:04;7.63;;;3.63;;
46781;SDS011;32541;46.298;11.506;2022-07-23T08:25:34;3.58;;;2.97;;
46781;SDS011;32541;46.298;11.506;2022-07-23T08:28:02;5.10;;;3.03;;
46781;SDS011;32541;46.298;11.506;2022-07-23T08:30:29;4.22;;;2.83;;
46781;SDS011;32541;46.298;11.506;2022-07-23T08:32:59;3.75;;;3.20;;
46781;SDS011;32541;46.298;11.506;2022-07-23T08:38:07;4.70;;;3.60;;
46781;SDS011;32541;46.298;11.506;2022-07-23T08:40:35;3.28;;;2.97;;
46781;SDS011;32541;46.298;11.506;2022-07-23T08:43:06;3.63;;;3.17;;
46781;SDS011;32541;46.298;11.506;2022-07-23T08:45:39;3.20;;;2.85;;
46781;SDS011;32541;46.298;11.506;2022-07-23T08:48:12;5.20;;;3.15;;
46781;SDS011;32541;46.298;11.506;2022-07-23T08:50:46;4.05;;;2.80;;
46781;SDS011;32541;46.298;11.506;2022-07-23T08:53:14;3.65;;;2.63;;
46781;SDS011;32541;46.298;11.506;2022-07-23T08:55:43;4.35;;;2.90;;
46781;SDS011;32541;46.298;11.506;2022-07-23T08:58:13;7.28;;;3.03;;
46781;SDS011;32541;46.298;11.506;2022-07-23T09:00:39;3.05;;;2.58;;
46781;SDS011;32541;46.298;11.506;2022-07-23T09:03:04;2.50;;;2.30;;
46781;SDS011;32541;46.298;11.506;2022-07-23T09:05:30;3.42;;;2.30;;
46781;SDS011;32541;46.298;11.506;2022-07-23T09:08:09;4.50;;;2.10;;
46781;SDS011;32541;46.298;11.506;2022-07-23T09:10:43;5.20;;;2.45;;
46781;SDS011;32541;46.298;11.506;2022-07-23T09:19:06;3.85;;;2.38;;
46781;SDS011;32541;46.298;11.506;2022-07-23T09:21:33;4.28;;;2.20;;
46781;SDS011;32541;46.298;11.506;2022-07-23T09:24:05;4.10;;;2.33;;
46781;SDS011;32541;46.298;11.506;2022-07-23T09:26:45;4.85;;;2.60;;
46781;SDS011;32541;46.298;11.506;2022-07-23T09:31:47;3.08;;;2.15;;
46781;SDS011;32541;46.298;11.506;2022-07-23T09:36:55;2.85;;;2.20;;
46781;SDS011;32541;46.298;11.506;2022-07-23T09:39:32;3.20;;;2.17;;
46781;SDS011;32541;46.298;11.506;2022-07-23T09:41:59;3.10;;;2.35;;
46781;SDS011;32541;46.298;11.506;2022-07-23T09:44:48;2.30;;;2.00;;
46781;SDS011;32541;46.298;11.506;2022-07-23T09:47:15;3.03;;;2.47;;
46781;SDS011;32541;46.298;11.506;2022-07-23T09:50:03;3.25;;;2.63;;
46781;SDS011;32541;46.298;11.506;2022-07-23T09:52:33;2.60;;;2.38;;
46781;SDS011;32541;46.298;11.506;2022-07-23T09:55:08;6.05;;;2.65;;
46781;SDS011;32541;46.298;11.506;2022-07-23T09:57:34;3.50;;;2.50;;
46781;SDS011;32541;46.298;11.506;2022-07-23T10:00:06;3.17;;;2.35;;
46781;SDS011;32541;46.298;11.506;2022-07-23T10:02:34;2.67;;;2.38;;
46781;SDS011;32541;46.298;11.506;2022-07-23T10:05:03;3.35;;;2.22;;
46781;SDS011;32541;46.298;11.506;2022-07-23T10:07:33;2.30;;;2.10;;
46781;SDS011;32541;46.298;11.506;2022-07-23T10:10:02;4.10;;;2.22;;
46781;SDS011;32541;46.298;11.506;2022-07-23T10:12:28;2.95;;;2.13;;
46781;SDS011;32541;46.298;11.506;2022-07-23T10:15:09;3.25;;;2.50;;
46781;SDS011;32541;46.298;11.506;2022-07-23T10:17:35;4.45;;;2.28;;
46781;SDS011;32541;46.298;11.506;2022-07-23T10:20:00;3.25;;;2.20;;
46781;SDS011;32541;46.298;11.506;2022-07-23T10:22:27;3.47;;;2.47;;
46781;SDS011;32541;46.298;11.506;2022-07-23T10:33:32;3.17;;;2.25;;
46781;SDS011;32541;46.298;11.506;2022-07-23T10:39:06;7.57;;;2.42;;
46781;SDS011;32541;46.298;11.506;2022-07-23T10:41:39;2.55;;;2.03;;
46781;SDS011;32541;46.298;11.506;2022-07-23T10:44:06;2.88;;;2.40;;
46781;SDS011;32541;46.298;11.506;2022-07-23T10:49:43;2.60;;;2.08;;
46781;SDS011;32541;46.298;11.506;2022-07-23T10:52:25;2.58;;;2.20;;
46781;SDS011;32541;46.298;11.506;2022-07-23T10:57:47;3.15;;;2.50;;
46781;SDS011;32541;46.298;11.506;2022-07-23T11:00:15;4.22;;;2.33;;
46781;SDS011;32541;46.298;11.506;2022-07-23T11:02:43;3.88;;;2.17;;
46781;SDS011;32541;46.298;11.506;2022-07-23T11:05:15;3.67;;;2.28;;
46781;SDS011;32541;46.298;11.506;2022-07-23T11:10:32;2.60;;;2.20;;
46781;SDS011;32541;46.298;11.506;2022-07-23T11:19:03;2.45;;;2.25;;
46781;SDS011;32541;46.298;11.506;2022-07-23T11:24:02;2.85;;;2.17;;
46781;SDS011;32541;46.298;11.506;2022-07-23T11:32:05;2.83;;;2.45;;
46781;SDS011;32541;46.298;11.506;2022-07-23T11:34:42;3.50;;;3.20;;
46781;SDS011;32541;46.298;11.506;2022-07-23T11:37:11;3.25;;;2.53;;
46781;SDS011;32541;46.298;11.506;2022-07-23T11:42:19;4.38;;;2.78;;
46781;SDS011;32541;46.298;11.506;2022-07-23T11:44:46;5.15;;;3.30;;
46781;SDS011;32541;46.298;11.506;2022-07-23T11:47:12;3.55;;;2.95;;
46781;SDS011;32541;46.298;11.506;2022-07-23T11:49:39;3.67;;;2.80;;
46781;SDS011;32541;46.298;11.506;2022-07-23T11:52:16;4.20;;;3.70;;
46781;SDS011;32541;46.298;11.506;2022-07-23T11:57:18;4.00;;;3.10;;
46781;SDS011;32541;46.298;11.506;2022-07-23T11:59:49;5.07;;;4.32;;
46781;SDS011;32541;46.298;11.506;2022-07-23T12:02:19;6.57;;;4.13;;
46781;SDS011;32541;46.298;11.506;2022-07-23T12:04:47;3.97;;;3.58;;
46781;SDS011;32541;46.298;11.506;2022-07-23T12:10:00;6.93;;;3.92;;
46781;SDS011;32541;46.298;11.506;2022-07-23T12:12:39;6.97;;;4.10;;
46781;SDS011;32541;46.298;11.506;2022-07-23T12:15:06;5.55;;;4.50;;
46781;SDS011;32541;46.298;11.506;2022-07-23T12:17:33;4.82;;;4.10;;
46781;SDS011;32541;46.298;11.506;2022-07-23T12:20:02;4.25;;;3.75;;
46781;SDS011;32541;46.298;11.506;2022-07-23T12:22:40;8.50;;;4.43;;
46781;SDS011;32541;46.298;11.506;2022-07-23T12:25:09;6.72;;;3.88;;
46781;SDS011;32541;46.298;11.506;2022-07-23T12:27:34;4.43;;;3.83;;
46781;SDS011;32541;46.298;11.506;2022-07-23T12:30:22;5.70;;;3.90;;
46781;SDS011;32541;46.298;11.506;2022-07-23T12:32:48;7.43;;;4.20;;
46781;SDS011;32541;46.298;11.506;2022-07-23T12:35:16;5.85;;;3.58;;
46781;SDS011;32541;46.298;11.506;2022-07-23T12:37:42;4.75;;;4.20;;
46781;SDS011;32541;46.298;11.506;2022-07-23T12:40:23;3.85;;;3.28;;
46781;SDS011;32541;46.298;11.506;2022-07-23T12:42:52;4.97;;;4.47;;
46781;SDS011;32541;46.298;11.506;2022-07-23T12:45:20;6.25;;;3.88;;
46781;SDS011;32541;46.298;11.506;2022-07-23T12:47:56;5.70;;;4.35;;
46781;SDS011;32541;46.298;11.506;2022-07-23T12:50:42;6.18;;;4.10;;
46781;SDS011;32541;46.298;11.506;2022-07-23T12:53:29;4.03;;;3.63;;
46781;SDS011;32541;46.298;11.506;2022-07-23T12:55:59;5.90;;;3.75;;
46781;SDS011;32541;46.298;11.506;2022-07-23T12:58:52;5.53;;;3.75;;
46781;SDS011;32541;46.298;11.506;2022-07-23T13:03:55;7.32;;;3.95;;
46781;SDS011;32541;46.298;11.506;2022-07-23T13:06:38;4.50;;;3.83;;
46781;SDS011;32541;46.298;11.506;2022-07-23T13:09:09;6.55;;;4.30;;
46781;SDS011;32541;46.298;11.506;2022-07-23T13:11:37;7.28;;;4.43;;
46781;SDS011;32541;46.298;11.506;2022-07-23T13:14:03;6.95;;;4.60;;
46781;SDS011;32541;46.298;11.506;2022-07-23T13:16:29;4.95;;;4.45;;
46781;SDS011;32541;46.298;11.506;2022-07-23T13:18:56;6.60;;;4.22;;
46781;SDS011;32541;46.298;11.506;2022-07-23T13:21:28;5.07;;;4.57;;
46781;SDS011;32541;46.298;11.506;2022-07-23T13:23:54;8.82;;;4.68;;
46781;SDS011;32541;46.298;11.506;2022-07-23T13:26:20;10.43;;;5.10;;
46781;SDS011;32541;46.298;11.506;2022-07-23T13:28:46;5.72;;;4.50;;
46781;SDS011;32541;46.298;11.506;2022-07-23T13:31:11;5.00;;;4.50;;
46781;SDS011;32541;46.298;11.506;2022-07-23T13:33:37;6.38;;;4.32;;
46781;SDS011;32541;46.298;11.506;2022-07-23T13:36:03;5.78;;;3.92;;
46781;SDS011;32541;46.298;11.506;2022-07-23T13:38:29;7.70;;;4.72;;
46781;SDS011;32541;46.298;11.506;2022-07-23T13:40:54;6.15;;;4.85;;
46781;SDS011;32541;46.298;11.506;2022-07-23T13:43:21;4.82;;;4.32;;
46781;SDS011;32541;46.298;11.506;2022-07-23T13:45:49;7.72;;;4.40;;
46781;SDS011;32541;46.298;11.506;2022-07-23T13:48:15;5.18;;;4.63;;
46781;SDS011;32541;46.298;11.506;2022-07-23T13:50:42;5.10;;;4.07;;
46781;SDS011;32541;46.298;11.506;2022-07-23T13:53:09;9.63;;;4.45;;
46781;SDS011;32541;46.298;11.506;2022-07-23T13:55:36;5.53;;;3.92;;
46781;SDS011;32541;46.298;11.506;2022-07-23T13:58:03;6.18;;;3.72;;
46781;SDS011;32541;46.298;11.506;2022-07-23T14:00:30;6.47;;;4.07;;
46781;SDS011;32541;46.298;11.506;2022-07-23T14:02:56;5.15;;;3.83;;
46781;SDS011;32541;46.298;11.506;2022-07-23T14:05:22;4.85;;;4.07;;
46781;SDS011;32541;46.298;11.506;2022-07-23T14:07:47;4.15;;;3.72;;
46781;SDS011;32541;46.298;11.506;2022-07-23T14:10:14;4.75;;;3.67;;
46781;SDS011;32541;46.298;11.506;2022-07-23T14:12:42;6.05;;;4.03;;
46781;SDS011;32541;46.298;11.506;2022-07-23T14:15:07;4.50;;;3.63;;
46781;SDS011;32541;46.298;11.506;2022-07-23T14:17:34;4.82;;;3.22;;
46781;SDS011;32541;46.298;11.506;2022-07-23T14:20:01;3.45;;;2.70;;
46781;SDS011;32541;46.298;11.506;2022-07-23T14:22:26;3.53;;;3.15;;
46781;SDS011;32541;46.298;11.506;2022-07-23T14:24:52;4.03;;;3.10;;
46781;SDS011;32541;46.298;11.506;2022-07-23T14:27:17;6.00;;;3.38;;
46781;SDS011;32541;46.298;11.506;2022-07-23T14:29:43;4.95;;;3.92;;
46781;SDS011;32541;46.298;11.506;2022-07-23T14:32:08;4.55;;;4.13;;
46781;SDS011;32541;46.298;11.506;2022-07-23T14:34:34;4.85;;;4.40;;
46781;SDS011;32541;46.298;11.506;2022-07-23T14:37:00;6.38;;;3.70;;
46781;SDS011;32541;46.298;11.506;2022-07-23T14:39:26;19.38;;;13.68;;
46781;SDS011;32541;46.298;11.506;2022-07-23T14:41:52;30.63;;;24.02;;
46781;SDS011;32541;46.298;11.506;2022-07-23T14:44:17;6.63;;;4.57;;
46781;SDS011;32541;46.298;11.506;2022-07-23T14:46:43;6.25;;;5.28;;
46781;SDS011;32541;46.298;11.506;2022-07-23T14:49:09;5.35;;;4.55;;
46781;SDS011;32541;46.298;11.506;2022-07-23T14:51:35;5.57;;;5.00;;
46781;SDS011;32541;46.298;11.506;2022-07-23T14:54:02;6.65;;;4.93;;
46781;SDS011;32541;46.298;11.506;2022-07-23T14:56:28;5.25;;;4.75;;
46781;SDS011;32541;46.298;11.506;2022-07-23T14:58:54;8.20;;;5.05;;
46781;SDS011;32541;46.298;11.506;2022-07-23T15:01:21;6.28;;;4.82;;
46781;SDS011;32541;46.298;11.506;2022-07-23T15:03:47;5.88;;;5.10;;
46781;SDS011;32541;46.298;11.506;2022-07-23T15:06:13;5.88;;;5.28;;
46781;SDS011;32541;46.298;11.506;2022-07-23T15:08:39;8.80;;;5.43;;
46781;SDS011;32541;46.298;11.506;2022-07-23T15:11:04;5.38;;;4.88;;
46781;SDS011;32541;46.298;11.506;2022-07-23T15:13:30;6.28;;;4.95;;
46781;SDS011;32541;46.298;11.506;2022-07-23T15:15:55;9.27;;;5.47;;
46781;SDS011;32541;46.298;11.506;2022-07-23T15:18:21;5.70;;;5.20;;
46781;SDS011;32541;46.298;11.506;2022-07-23T15:20:46;7.35;;;6.13;;
46781;SDS011;32541;46.298;11.506;2022-07-23T15:23:12;7.80;;;5.50;;
46781;SDS011;32541;46.298;11.506;2022-07-23T15:25:38;7.57;;;5.75;;
46781;SDS011;32541;46.298;11.506;2022-07-23T15:28:04;5.50;;;4.13;;
46781;SDS011;32541;46.298;11.506;2022-07-23T15:30:30;4.70;;;3.88;;